Time;durP1;ratioP1;P1;durP2;ratioP2;P2;SDS_P1;SDS_P2;PMS_P1;PMS_P2;Temp;Humidity;BMP_temperature;BMP_pressure;BME280_temperature;BME280_humidity;BME280_pressure;Samples;Min_cycle;Max_cycle;Signal;HPM_P1;HPM_P2
2022/09/03 00:00:48;;;;;;;16.93;12.13;;;;;;;12.39;100.00;100228.10;1723989;82;21015;-66
2022/09/03 00:03:28;;;;;;;15.68;11.63;;;;;;;12.41;100.00;100233.27;1730144;82;21003;-66
2022/09/03 00:06:21;;;;;;;18.45;12.00;;;;;;;12.39;100.00;100232.20;1736232;81;21494;-66
2022/09/03 00:08:54;;;;;;;17.95;12.73;;;;;;;12.39;100.00;100237.66;1745131;82;20960;-66
2022/09/03 00:11:27;;;;;;;16.20;11.80;;;;;;;12.38;100.00;100239.28;1744909;81;21023;-66
2022/09/03 00:14:05;;;;;;;15.68;12.20;;;;;;;12.38;100.00;100235.19;1725799;82;20995;-66
2022/09/03 00:16:57;;;;;;;18.95;12.03;;;;;;;12.38;100.00;100239.28;1729984;82;21561;-66
2022/09/03 00:19:28;;;;;;;15.98;11.18;;;;;;;12.36;100.00;100236.80;1747728;82;21054;-66
2022/09/03 00:22:23;;;;;;;20.48;10.88;;;;;;;12.35;100.00;100238.46;1732017;82;21127;-66
2022/09/03 00:24:49;;;;;;;17.75;11.08;;;;;;;12.36;100.00;100242.84;1710784;82;21043;-66
2022/09/03 00:27:21;;;;;;;15.70;11.25;;;;;;;12.35;100.00;100240.65;1718353;82;21099;-66
2022/09/03 00:30:02;;;;;;;16.90;10.90;;;;;;;12.37;100.00;100237.63;1717411;82;21050;-67
2022/09/03 00:32:39;;;;;;;15.23;10.70;;;;;;;12.37;100.00;100236.27;1714215;82;21784;-66
2022/09/03 00:35:10;;;;;;;13.85;10.80;;;;;;;12.36;100.00;100235.44;1698663;82;21099;-66
2022/09/03 00:37:37;;;;;;;15.20;10.93;;;;;;;12.40;100.00;100236.55;1726722;82;21031;-66
2022/09/03 00:40:06;;;;;;;16.05;11.05;;;;;;;12.43;100.00;100236.56;1706294;82;21083;-66
2022/09/03 00:42:53;;;;;;;15.78;10.30;;;;;;;12.42;100.00;100237.11;1720448;82;21031;-66
2022/09/03 00:45:38;;;;;;;12.18;9.80;;;;;;;12.42;100.00;100245.30;1718831;82;21079;-66
2022/09/03 00:48:13;;;;;;;18.40;10.15;;;;;;;12.39;100.00;100233.56;1720385;82;21031;-66
2022/09/03 00:50:54;;;;;;;18.60;10.60;;;;;;;12.38;100.00;100239.28;1714918;82;21098;-66
2022/09/03 00:53:50;;;;;;;12.70;9.20;;;;;;;12.37;100.00;100237.09;1719728;82;21047;-66
2022/09/03 00:56:42;;;;;;;17.80;9.08;;;;;;;12.37;100.00;100243.91;1712149;82;21024;-66
2022/09/03 00:59:45;;;;;;;14.68;9.13;;;;;;;12.36;100.00;100234.08;1710750;82;21004;-66
2022/09/03 01:02:48;;;;;;;14.20;8.98;;;;;;;12.37;100.00;100234.91;1724451;82;21023;-66
2022/09/03 01:05:33;;;;;;;15.63;8.98;;;;;;;12.37;100.00;100233.53;1731714;82;21079;-66
2022/09/03 01:08:35;;;;;;;11.68;8.25;;;;;;;12.37;100.00;100233.00;1717881;82;20992;-66
2022/09/03 01:11:18;;;;;;;12.45;8.73;;;;;;;12.38;100.00;100229.18;1710713;82;21378;-66
2022/09/03 01:13:53;;;;;;;15.10;8.70;;;;;;;12.36;100.00;100231.92;1719504;82;21032;-66
2022/09/03 01:16:34;;;;;;;16.23;8.70;;;;;;;12.35;100.00;100232.45;1711539;82;21170;-66
2022/09/03 01:19:30;;;;;;;12.45;8.63;;;;;;;12.35;100.00;100229.73;1659526;86;21055;-66
2022/09/03 01:22:38;;;;;;;14.73;8.40;;;;;;;12.37;100.00;100228.08;1727031;81;21157;-67
2022/09/03 01:25:45;;;;;;;14.67;8.93;;;;;;;12.36;100.00;100233.28;1726911;82;21871;-66
2022/09/03 01:28:39;;;;;;;14.78;9.18;;;;;;;12.35;100.00;100240.65;1742253;82;22723;-67
2022/09/03 01:31:17;;;;;;;15.88;8.70;;;;;;;12.33;100.00;100232.44;1696410;82;21136;-66
2022/09/03 01:36:50;;;;;;;12.50;8.43;;;;;;;12.35;100.00;100228.91;1773671;79;24132;-65
2022/09/03 01:39:25;;;;;;;14.70;7.75;;;;;;;12.28;100.00;100229.17;1734368;82;21113;-66
2022/09/03 01:42:14;;;;;;;14.05;7.20;;;;;;;12.30;100.00;100236.53;1713258;82;21079;-65
2022/09/03 01:45:11;;;;;;;11.65;6.80;;;;;;;12.33;100.00;100233.26;1727283;82;21070;-66
2022/09/03 01:48:26;;;;;;;9.38;6.58;;;;;;;12.37;100.00;100236.27;1724514;82;22216;-66
2022/09/03 01:51:09;;;;;;;11.18;6.62;;;;;;;12.41;100.00;100238.19;1737644;82;21109;-67
2022/09/03 01:53:51;;;;;;;12.60;7.00;;;;;;;12.42;100.00;100238.47;1739509;82;21565;-66
2022/09/03 01:56:44;;;;;;;12.75;6.80;;;;;;;12.44;100.00;100232.72;1742025;82;21130;-66
2022/09/03 01:59:20;;;;;;;10.80;6.25;;;;;;;12.44;100.00;100235.45;1728546;82;21034;-66
2022/09/03 02:01:55;;;;;;;12.28;6.75;;;;;;;12.44;100.00;100232.72;1731921;82;21106;-66
2022/09/03 02:04:24;;;;;;;12.82;6.65;;;;;;;12.44;100.00;100231.36;1743267;82;21074;-66
2022/09/03 02:06:52;;;;;;;12.37;7.35;;;;;;;12.43;100.00;100233.27;1737266;82;21109;-66
2022/09/03 02:09:19;;;;;;;11.05;7.17;;;;;;;12.44;100.00;100229.45;1749084;81;20971;-67
2022/09/03 02:12:06;;;;;;;12.50;6.80;;;;;;;12.44;100.00;100230.81;1734396;82;21007;-66
2022/09/03 02:14:33;;;;;;;15.35;7.05;;;;;;;12.44;100.00;100230.81;1725354;82;21054;-66
2022/09/03 02:16:59;;;;;;;12.98;6.20;;;;;;;12.44;100.00;100230.81;1736742;82;21537;-66
2022/09/03 02:19:26;;;;;;;;;;;;;;;12.44;100.00;100232.72;1743060;82;21077;-66
2022/09/03 02:21:54;;;;;;;10.40;6.00;;;;;;;12.45;100.00;100231.64;1735491;82;20197;-66
2022/09/03 02:24:21;;;;;;;9.65;5.90;;;;;;;12.41;100.00;100230.54;1728285;82;21741;-67
2022/09/03 02:26:47;;;;;;;9.08;5.50;;;;;;;12.44;100.00;100239.01;1733885;82;21087;-66
2022/09/03 02:29:15;;;;;;;10.15;5.85;;;;;;;12.47;100.00;100237.63;1738034;82;21051;-67
2022/09/03 02:31:43;;;;;;;9.00;5.53;;;;;;;12.49;100.00;100234.11;1743298;82;21138;-66
2022/09/03 02:34:10;;;;;;;10.25;5.90;;;;;;;12.52;100.00;100232.19;1726469;82;21035;-66
2022/09/03 02:36:40;;;;;;;10.63;6.10;;;;;;;12.53;100.00;100234.38;1737136;82;21641;-66
2022/09/03 02:39:06;;;;;;;10.65;6.37;;;;;;;12.54;100.00;100238.19;1735206;82;21039;-66
2022/09/03 02:41:33;;;;;;;9.43;5.92;;;;;;;12.54;100.00;100236.82;1729370;82;21063;-66
2022/09/03 02:44:10;;;;;;;9.10;5.50;;;;;;;12.53;100.00;100242.03;1725725;82;21030;-66
2022/09/03 02:46:58;;;;;;;12.90;6.08;;;;;;;12.55;100.00;100239.83;1732617;82;21632;-66
2022/09/03 02:49:25;;;;;;;10.53;5.58;;;;;;;12.55;100.00;100241.20;1720920;82;21050;-66
2022/09/03 02:51:59;;;;;;;11.15;6.03;;;;;;;12.54;100.00;100244.22;1725014;82;21098;-66
2022/09/03 02:54:27;;;;;;;12.10;6.00;;;;;;;12.55;100.00;100249.39;1723337;82;21042;-67
2022/09/03 02:56:53;;;;;;;10.88;6.05;;;;;;;12.54;100.00;100244.22;1731319;82;21039;-66
2022/09/03 02:59:21;;;;;;;;;;;;;;;12.53;100.00;100241.20;1746815;82;21542;-66
2022/09/03 03:01:48;;;;;;;9.35;5.22;;;;;;;12.50;100.00;100235.75;1730925;82;20133;-67
2022/09/03 03:04:14;;;;;;;9.10;5.37;;;;;;;12.43;100.00;100247.48;1738129;82;21510;-66
2022/09/03 03:06:41;;;;;;;9.53;5.70;;;;;;;12.44;100.00;100251.30;1727490;82;21153;-66
2022/09/03 03:09:07;;;;;;;;;;;;;;;12.48;100.00;100253.77;1730983;82;21043;-66
2022/09/03 03:11:35;;;;;;;10.95;5.20;;;;;;;12.51;100.00;100251.02;1742736;82;20138;-66
2022/09/03 03:14:02;;;;;;;10.23;5.85;;;;;;;12.46;100.00;100245.03;1722270;82;21815;-67
2022/09/03 03:16:28;;;;;;;;;;;;;;;12.49;100.00;100250.48;1729446;82;21114;-67
2022/09/03 03:18:56;;;;;;;8.23;5.00;;;;;;;12.50;100.00;100256.23;1736489;82;20130;-66
2022/09/03 03:21:22;;;;;;;10.03;6.37;;;;;;;12.45;100.00;100257.58;1750368;82;21504;-66
2022/09/03 03:23:49;;;;;;;;;;;;;;;12.48;100.00;100267.41;1740378;82;21027;-66
2022/09/03 03:26:17;;;;;;;12.43;8.40;;;;;;;12.54;100.00;100292.02;1737122;82;20144;-66
2022/09/03 03:28:48;;;;;;;15.38;8.38;;;;;;;12.53;100.00;100289.00;1743561;82;20987;-66
2022/09/03 03:31:19;;;;;;;14.23;8.80;;;;;;;12.51;100.00;100302.08;1730410;82;21295;-66
2022/09/03 03:33:54;;;;;;;17.25;9.90;;;;;;;12.48;100.00;100302.09;1729578;82;21043;-66
2022/09/03 03:36:21;;;;;;;12.53;8.13;;;;;;;12.47;100.00;100292.25;1734473;81;21129;-66
2022/09/03 03:38:48;;;;;;;13.78;8.33;;;;;;;12.44;100.00;100297.71;1746763;82;21043;-66
2022/09/03 03:41:22;;;;;;;10.95;7.83;;;;;;;12.41;100.00;100294.16;1738343;82;21130;-66
2022/09/03 03:43:53;;;;;;;11.80;8.35;;;;;;;12.40;100.00;100290.33;1731125;82;21058;-66
2022/09/03 03:46:22;;;;;;;10.88;7.50;;;;;;;12.40;100.00;100290.33;1730200;82;21953;-66
2022/09/03 03:48:51;;;;;;;12.33;8.10;;;;;;;12.47;100.00;100294.98;1727980;82;21020;-67
2022/09/03 03:51:17;;;;;;;13.13;8.25;;;;;;;12.53;100.00;100298.02;1744513;82;21454;-66
2022/09/03 03:53:44;;;;;;;11.50;7.25;;;;;;;12.55;100.00;100293.09;1728022;82;21019;-66
2022/09/03 03:56:13;;;;;;;12.88;8.28;;;;;;;12.58;100.00;100302.09;1737975;82;21028;-66
2022/09/03 03:58:42;;;;;;;11.20;7.65;;;;;;;12.60;100.00;100299.11;1736895;82;20979;-67
2022/09/03 04:01:11;;;;;;;12.33;7.92;;;;;;;12.62;100.00;100295.55;1737705;82;21007;-66
2022/09/03 04:03:38;;;;;;;11.90;8.28;;;;;;;12.65;100.00;100286.81;1741677;82;21008;-66
2022/09/03 04:06:05;;;;;;;12.88;8.63;;;;;;;12.67;100.00;100284.64;1730180;82;21062;-66
2022/09/03 04:08:37;;;;;;;11.33;7.78;;;;;;;12.70;100.00;100294.48;1729077;82;21492;-66
2022/09/03 04:11:06;;;;;;;13.48;7.58;;;;;;;12.75;100.00;100296.41;1730557;82;21099;-66
2022/09/03 04:13:36;;;;;;;11.05;7.58;;;;;;;12.84;100.00;100308.41;1746917;82;21072;-67
2022/09/03 04:16:08;;;;;;;10.35;7.55;;;;;;;12.88;100.00;100294.48;1729293;82;21643;-66
2022/09/03 04:18:37;;;;;;;12.35;7.62;;;;;;;12.87;100.00;100291.47;1745704;82;22045;-66
2022/09/03 04:21:09;;;;;;;11.88;7.80;;;;;;;12.89;100.00;100298.30;1734159;82;21146;-66
2022/09/03 04:23:39;;;;;;;12.82;7.83;;;;;;;12.91;100.00;100296.66;1730690;82;21050;-66
2022/09/03 04:26:07;;;;;;;11.63;8.25;;;;;;;12.92;100.00;100292.84;1733037;82;21023;-66
2022/09/03 04:28:34;;;;;;;13.65;7.92;;;;;;;12.93;100.00;100293.92;1728240;82;21585;-66
2022/09/03 04:31:05;;;;;;;10.60;7.05;;;;;;;12.96;100.00;100294.77;1733146;82;21094;-66
2022/09/03 04:33:32;;;;;;;12.82;7.87;;;;;;;12.98;100.00;100289.84;1740204;82;21003;-66
2022/09/03 04:36:10;;;;;;;11.88;8.23;;;;;;;12.99;100.00;100294.76;1732658;81;21871;-67
2022/09/03 04:38:40;;;;;;;13.10;8.13;;;;;;;13.01;100.00;100295.29;1677320;84;21050;-65
2022/09/03 04:41:08;;;;;;;12.15;7.62;;;;;;;13.07;100.00;100298.31;1693626;84;21114;-65
2022/09/03 04:43:35;;;;;;;12.40;7.92;;;;;;;13.15;100.00;100296.41;1677396;84;21122;-65
2022/09/03 04:46:03;;;;;;;;;;;;;;;13.18;100.00;100284.92;1695837;84;21111;-65
2022/09/03 04:48:31;;;;;;;12.30;7.87;;;;;;;13.18;100.00;100284.92;1676873;84;20187;-65
2022/09/03 04:51:13;;;;;;;12.47;7.87;;;;;;;13.14;100.00;100291.23;1691346;84;21145;-65
2022/09/03 04:53:44;;;;;;;13.90;8.15;;;;;;;13.15;100.00;100284.11;1679783;84;21122;-66
2022/09/03 04:56:18;;;;;;;11.18;7.75;;;;;;;13.16;100.00;100281.66;1688797;84;21122;-66
2022/09/03 04:58:45;;;;;;;13.28;7.62;;;;;;;13.16;100.00;100285.75;1693417;84;21298;-66
2022/09/03 05:01:17;;;;;;;12.40;7.62;;;;;;;13.19;100.00;100289.30;1684099;84;21110;-66
2022/09/03 05:03:44;;;;;;;12.07;7.75;;;;;;;13.22;100.00;100291.48;1685601;84;20995;-66
2022/09/03 05:06:11;;;;;;;11.48;7.90;;;;;;;13.26;100.00;100292.57;1672701;84;21138;-66
2022/09/03 05:08:39;;;;;;;11.93;7.95;;;;;;;13.30;100.00;100279.16;1682177;84;21769;-66
2022/09/03 05:11:07;;;;;;;13.45;7.85;;;;;;;13.36;100.00;100279.42;1686882;84;21077;-66
2022/09/03 05:13:35;;;;;;;14.73;8.73;;;;;;;13.40;100.00;100285.44;1684949;84;21027;-66
2022/09/03 05:16:09;;;;;;;16.77;8.23;;;;;;;13.42;100.00;100287.36;1720225;82;21071;-66
2022/09/03 05:18:35;;;;;;;15.88;8.95;;;;;;;13.45;100.00;100287.34;1716445;82;20968;-66
2022/09/03 05:21:06;;;;;;;;;;;;;;;13.48;100.00;100285.96;1736126;82;21044;-66
2022/09/03 05:23:39;;;;;;;14.85;7.97;;;;;;;13.49;100.00;100281.59;1713063;82;20630;-67
2022/09/03 05:26:08;;;;;;;10.82;7.42;;;;;;;13.43;100.00;100284.87;1716077;82;21107;-67
2022/09/03 05:28:36;;;;;;;11.70;8.18;;;;;;;13.43;100.00;100294.44;1709276;82;20991;-68
2022/09/03 05:31:08;;;;;;;13.72;7.87;;;;;;;13.48;100.00;100291.44;1715653;82;21151;-68
2022/09/03 05:33:42;;;;;;;11.57;7.72;;;;;;;13.54;100.00;100283.47;1691938;84;21311;-67
2022/09/03 05:36:12;;;;;;;11.60;7.42;;;;;;;13.58;100.00;100284.02;1724956;81;21109;-67
2022/09/03 05:38:38;;;;;;;12.18;8.13;;;;;;;13.58;100.00;100292.22;1733048;82;21462;-67
2022/09/03 05:41:08;;;;;;;12.40;8.55;;;;;;;13.66;100.00;100303.15;1725102;82;21082;-68
2022/09/03 05:43:35;;;;;;;15.58;7.90;;;;;;;13.72;100.00;100299.29;1725532;82;21055;-66
2022/09/03 05:46:16;;;;;;;13.03;8.08;;;;;;;13.76;100.00;100294.91;1702131;84;21126;-68
2022/09/03 05:48:42;;;;;;;15.48;8.58;;;;;;;13.82;100.00;100289.67;1666050;84;21070;-68
2022/09/03 05:51:16;;;;;;;13.35;7.83;;;;;;;13.87;100.00;100283.65;1698223;82;21078;-67
2022/09/03 05:53:44;;;;;;;13.95;8.25;;;;;;;13.90;100.00;100281.71;1744238;82;21482;-68
2022/09/03 05:56:18;;;;;;;15.30;8.75;;;;;;;13.96;100.00;100283.86;1743063;82;21082;-68
2022/09/03 05:58:47;;;;;;;14.25;8.15;;;;;;;14.08;100.00;100278.89;1729046;82;21620;-69
2022/09/03 06:01:20;;;;;;;12.80;8.10;;;;;;;14.24;100.00;100278.27;1723137;82;21089;-68
2022/09/03 06:03:49;;;;;;;12.98;8.03;;;;;;;14.36;100.00;100280.95;1736847;82;20980;-68
2022/09/03 06:06:16;;;;;;;14.30;8.13;;;;;;;14.49;100.00;100271.27;1730772;82;21031;-69
2022/09/03 06:08:43;;;;;;;12.73;8.00;;;;;;;14.66;100.00;100266.23;1731746;82;21522;-68
2022/09/03 06:11:10;;;;;;;13.58;7.75;;;;;;;14.89;100.00;100267.41;1732663;82;21041;-68
2022/09/03 06:13:37;;;;;;;12.10;7.30;;;;;;;15.08;100.00;100264.78;1723539;82;22470;-69
2022/09/03 06:16:05;;;;;;;11.40;7.35;;;;;;;15.23;100.00;100261.31;1748962;82;21149;-69
2022/09/03 06:18:32;;;;;;;13.48;7.62;;;;;;;15.38;100.00;100265.83;1747199;81;21498;-69
2022/09/03 06:21:02;;;;;;;;;;;;;;;15.56;100.00;100271.16;1727867;82;22281;-66
2022/09/03 06:23:30;;;;;;;11.88;6.53;;;;;;;15.69;100.00;100266.36;1746822;82;20158;-68
2022/09/03 06:26:12;;;;;;;11.90;6.35;;;;;;;15.67;100.00;100265.82;1726016;82;21110;-68
2022/09/03 06:28:44;;;;;;;11.65;6.60;;;;;;;15.81;100.00;100263.45;1723592;82;20999;-66
2022/09/03 06:31:13;;;;;;;8.63;5.58;;;;;;;16.01;100.00;100267.06;1742145;82;21066;-67
2022/09/03 06:33:41;;;;;;;10.65;6.35;;;;;;;16.15;100.00;100268.79;1746520;82;21031;-70
2022/09/03 06:36:16;;;;;;;11.00;7.33;;;;;;;16.29;100.00;100264.75;1720407;80;21081;-69
2022/09/03 06:38:43;;;;;;;10.32;6.85;;;;;;;16.38;100.00;100266.52;1726010;81;21097;-68
2022/09/03 06:41:24;;;;;;;9.65;6.65;;;;;;;16.43;100.00;100260.14;1746260;81;21153;-67
2022/09/03 06:43:48;;;;;;;11.73;6.83;;;;;;;16.45;100.00;100260.66;1739462;81;21019;-70
2022/09/03 06:46:17;;;;;;;13.10;6.50;;;;;;;16.41;100.00;100264.55;1734468;81;21185;-70
2022/09/03 06:48:44;;;;;;;11.55;6.67;;;;;;;16.38;100.00;100265.15;1755032;81;21018;-70
2022/09/03 06:51:15;;;;;;;12.45;6.17;;;;;;;16.34;100.00;100275.09;1746024;81;21106;-70
2022/09/03 06:53:44;;;;;;;11.30;6.00;;;;;;;16.33;100.00;100270.70;1743289;81;21060;-68
2022/09/03 06:56:14;;;;;;;10.60;5.83;;;;;;;16.28;100.00;100268.60;1740579;81;21066;-71
2022/09/03 06:58:43;;;;;;;8.00;6.10;;;;;;;16.25;100.00;100268.64;1747238;81;21022;-70
2022/09/03 07:01:19;;;;;;;13.28;5.92;;;;;;;16.23;100.00;100271.41;1756905;81;21086;-70
2022/09/03 07:03:47;;;;;;;13.30;6.60;;;;;;;16.19;100.00;100279.42;1673715;84;21436;-69
2022/09/03 07:06:16;;;;;;;11.50;7.00;;;;;;;16.13;100.00;100277.05;1672401;85;21038;-70
2022/09/03 07:08:43;;;;;;;11.75;7.35;;;;;;;16.08;100.00;100282.62;1711850;83;20998;-68
2022/09/03 07:11:12;;;;;;;12.78;8.08;;;;;;;16.03;100.00;100279.38;1707014;83;21110;-68
2022/09/03 07:13:42;;;;;;;12.90;7.30;;;;;;;15.99;100.00;100282.45;1702985;83;21516;-70
2022/09/03 07:16:18;;;;;;;13.20;7.87;;;;;;;15.96;100.00;100283.04;1705997;83;21148;-68
2022/09/03 07:18:45;;;;;;;;;;;;;;;15.93;100.00;100285.83;1706773;83;21547;-67
2022/09/03 07:21:15;;;;;;;14.05;6.85;;;;;;;15.98;100.00;100283.55;1688334;84;20311;-68
2022/09/03 07:23:42;;;;;;;11.68;6.55;;;;;;;15.99;100.00;100287.94;1691886;84;21600;-68
2022/09/03 07:26:13;;;;;;;11.25;6.33;;;;;;;16.10;100.00;100283.12;1694119;83;21085;-67
2022/09/03 07:28:40;;;;;;;10.45;6.15;;;;;;;16.12;100.00;100287.20;1692612;83;21560;-67
2022/09/03 07:31:14;;;;;;;9.90;5.53;;;;;;;16.20;100.00;100293.42;1678849;84;21095;-68
2022/09/03 07:33:41;;;;;;;11.75;6.17;;;;;;;16.31;100.00;100297.67;1695615;84;21047;-67
2022/09/03 07:36:11;;;;;;;11.35;5.85;;;;;;;16.34;100.00;100296.25;1703372;83;21106;-68
2022/09/03 07:38:37;;;;;;;8.78;4.92;;;;;;;16.42;100.00;100305.22;1681537;84;21087;-68
2022/09/03 07:41:06;;;;;;;7.50;5.15;;;;;;;16.47;100.00;100302.41;1688007;84;21075;-70
2022/09/03 07:43:36;;;;;;;7.83;5.45;;;;;;;16.48;100.00;100301.27;1683591;84;21633;-70
2022/09/03 07:46:03;;;;;;;9.35;5.28;;;;;;;16.44;100.00;100302.97;1671447;84;21660;-68
2022/09/03 07:48:30;;;;;;;10.50;5.08;;;;;;;16.49;100.00;100291.92;1686991;84;21066;-70
2022/09/03 07:51:00;;;;;;;9.38;4.42;;;;;;;16.61;100.00;100299.76;1695788;84;21656;-70
2022/09/03 07:53:27;;;;;;;10.93;5.70;;;;;;;16.64;100.00;100292.28;1653268;85;21066;-71
2022/09/03 07:56:06;;;;;;;8.63;5.20;;;;;;;16.68;100.00;100296.90;1670692;84;21099;-68
2022/09/03 07:58:34;;;;;;;7.45;4.92;;;;;;;16.78;100.00;100297.29;1671461;84;21052;-66
2022/09/03 08:01:10;;;;;;;7.17;4.58;;;;;;;16.86;100.00;100296.03;1672084;84;21098;-67
2022/09/03 08:03:43;;;;;;;7.72;4.65;;;;;;;16.98;100.00;100291.45;1677509;84;21103;-67
2022/09/03 08:06:10;;;;;;;6.75;4.35;;;;;;;17.04;100.00;100288.86;1701254;82;21178;-67
2022/09/03 08:08:36;;;;;;;7.17;4.28;;;;;;;17.14;100.00;100294.22;1702017;82;21000;-67
2022/09/03 08:11:09;;;;;;;9.73;4.90;;;;;;;17.19;100.00;100298.23;1712294;82;21122;-67
2022/09/03 08:13:44;;;;;;;9.30;4.72;;;;;;;17.25;100.00;100298.98;1709663;82;21319;-68
2022/09/03 08:16:12;;;;;;;6.85;4.30;;;;;;;17.31;100.00;100291.70;1707862;84;21122;-66
2022/09/03 08:18:39;;;;;;;7.22;4.33;;;;;;;17.37;100.00;100293.23;1727592;82;21554;-66
2022/09/03 08:21:13;;;;;;;7.83;4.37;;;;;;;17.47;100.00;100287.27;1712892;82;21138;-66
2022/09/03 08:23:46;;;;;;;6.53;3.97;;;;;;;17.50;100.00;100283.35;1713271;82;21597;-65
2022/09/03 08:26:14;;;;;;;7.42;4.05;;;;;;;17.57;100.00;100285.77;1723177;82;21107;-66
2022/09/03 08:28:42;;;;;;;8.20;4.05;;;;;;;17.61;100.00;100283.45;1711172;82;21117;-65
2022/09/03 08:31:15;;;;;;;8.75;4.17;;;;;;;17.61;98.67;100281.25;1710401;82;21085;-66
2022/09/03 08:33:44;;;;;;;5.97;4.08;;;;;;;17.60;100.00;100282.40;1721531;82;21091;-66
2022/09/03 08:36:16;;;;;;;6.28;3.87;;;;;;;17.74;100.00;100279.91;1733589;81;21048;-65
2022/09/03 08:38:45;;;;;;;6.90;4.17;;;;;;;17.87;98.16;100271.37;1731250;82;21408;-65
2022/09/03 08:41:17;;;;;;;6.62;3.40;;;;;;;17.86;92.68;100278.00;1740007;82;21602;-65
2022/09/03 08:43:57;;;;;;;6.20;3.52;;;;;;;17.83;93.62;100276.68;1746089;82;20980;-65
2022/09/03 08:46:28;;;;;;;6.90;4.08;;;;;;;17.91;93.54;100257.25;1744227;82;21074;-65
2022/09/03 08:48:54;;;;;;;8.70;4.53;;;;;;;17.98;93.22;100262.34;1726334;82;20984;-65
2022/09/03 08:51:22;;;;;;;;;;;;;;;17.98;92.32;100265.91;1693145;83;21922;-64
2022/09/03 08:53:50;;;;;;;5.62;3.50;;;;;;;18.03;92.37;100265.00;1716498;83;20416;-64
2022/09/03 08:56:28;;;;;;;7.10;3.83;;;;;;;18.03;91.35;100260.86;1714824;83;21126;-64
2022/09/03 08:58:54;;;;;;;10.10;4.40;;;;;;;18.18;90.81;100257.75;1733742;82;21050;-65
2022/09/03 09:02:05;;;;;;;6.03;3.37;;;;;;;18.39;89.43;100257.55;1737651;82;21098;-65
2022/09/03 09:05:10;;;;;;;9.80;4.75;;;;;;;18.59;90.79;100257.13;1744936;82;21023;-64
2022/09/03 09:07:52;;;;;;;5.95;4.25;;;;;;;18.92;84.71;100254.13;1715084;82;21137;-65
2022/09/03 09:10:46;;;;;;;9.53;3.95;;;;;;;19.09;84.28;100255.61;1732709;82;21106;-65
2022/09/03 09:13:30;;;;;;;8.98;3.87;;;;;;;19.28;80.56;100254.25;1714245;83;21406;-65
2022/09/03 09:16:20;;;;;;;4.78;3.50;;;;;;;19.49;78.04;100246.81;1703685;82;21178;-65
2022/09/03 09:19:06;;;;;;;7.85;4.03;;;;;;;19.67;76.49;100241.61;1733841;82;21078;-64
2022/09/03 09:21:40;;;;;;;6.55;4.22;;;;;;;19.88;74.38;100253.70;1714686;82;21120;-65
2022/09/03 09:24:10;;;;;;;8.00;4.50;;;;;;;19.98;75.76;100242.94;1668886;86;21034;-65
2022/09/03 09:26:37;;;;;;;8.40;4.10;;;;;;;20.12;77.21;100239.47;1680162;84;21616;-65
2022/09/03 09:29:09;;;;;;;7.05;4.03;;;;;;;20.25;74.79;100243.47;1693855;84;21106;-65
2022/09/03 09:31:37;;;;;;;6.20;4.10;;;;;;;20.38;77.26;100240.89;1693603;84;21071;-65
2022/09/03 09:34:05;;;;;;;6.83;3.60;;;;;;;20.53;72.96;100235.70;1684284;84;21541;-67
2022/09/03 09:36:47;;;;;;;8.78;3.52;;;;;;;20.64;70.69;100238.95;1643102;85;21982;-66
2022/09/03 09:39:16;;;;;;;7.05;4.05;;;;;;;20.64;65.93;100237.56;1713539;83;21017;-66
2022/09/03 09:41:43;;;;;;;6.62;3.47;;;;;;;20.55;65.74;100233.97;1690757;83;21057;-66
2022/09/03 09:44:19;;;;;;;8.88;3.70;;;;;;;20.50;65.74;100236.35;1690712;83;21006;-66
2022/09/03 09:46:46;;;;;;;6.20;3.70;;;;;;;20.46;65.14;100235.38;1699836;83;21092;-66
2022/09/03 09:49:33;;;;;;;6.78;3.80;;;;;;;20.46;62.68;100242.85;1664945;85;21080;-66
2022/09/03 09:52:12;;;;;;;6.60;3.92;;;;;;;20.24;61.46;100243.77;1690392;83;21627;-66
2022/09/03 09:54:41;;;;;;;7.20;3.42;;;;;;;20.09;63.37;100234.56;1691050;83;21076;-66
2022/09/03 09:57:17;;;;;;;7.12;3.83;;;;;;;20.04;63.08;100237.49;1722485;83;21132;-65
2022/09/03 09:59:45;;;;;;;7.83;3.80;;;;;;;20.07;65.63;100238.23;1681785;83;21094;-66
2022/09/03 10:02:26;;;;;;;8.83;3.62;;;;;;;20.09;63.78;100238.70;1670144;84;21106;-66
2022/09/03 10:04:55;;;;;;;7.97;4.03;;;;;;;20.03;64.63;100235.30;1675368;84;21548;-66
2022/09/03 10:07:30;;;;;;;6.33;3.55;;;;;;;19.98;63.30;100234.05;1706099;83;21512;-67
2022/09/03 10:10:14;;;;;;;8.95;3.92;;;;;;;19.84;61.65;100236.95;1692969;83;21049;-67
2022/09/03 10:12:47;;;;;;;7.95;4.40;;;;;;;19.77;64.48;100233.02;1711171;83;21081;-66
2022/09/03 10:15:40;;;;;;;7.80;3.83;;;;;;;19.83;63.97;100232.58;1697272;83;21379;-66
2022/09/03 10:18:54;;;;;;;7.12;4.40;;;;;;;19.84;65.33;100233.37;1692337;85;21097;-67
2022/09/03 10:21:54;;;;;;;7.00;4.00;;;;;;;19.83;64.80;100233.14;1696769;83;21120;-67
2022/09/03 10:24:49;;;;;;;6.65;4.25;;;;;;;19.81;65.63;100225.73;1668412;83;21050;-65
2022/09/03 10:27:17;;;;;;;6.33;3.87;;;;;;;19.88;66.34;100231.03;1724259;83;21046;-66
2022/09/03 10:29:43;;;;;;;8.73;4.00;;;;;;;19.92;64.87;100231.77;1724356;83;21324;-66
2022/09/03 10:32:27;;;;;;;8.15;4.03;;;;;;;19.97;62.77;100225.54;1722099;83;21081;-66
2022/09/03 10:35:21;;;;;;;9.95;4.10;;;;;;;19.92;62.90;100233.15;1695495;83;21061;-65
2022/09/03 10:38:11;;;;;;;5.17;3.37;;;;;;;19.93;63.12;100209.92;1683096;84;21074;-66
2022/09/03 10:40:51;;;;;;;6.95;3.80;;;;;;;19.98;63.53;100213.92;1671821;85;21067;-66
2022/09/03 10:43:32;;;;;;;8.55;3.80;;;;;;;20.02;61.81;100217.08;1631261;84;21596;-66
2022/09/03 10:46:18;;;;;;;5.08;3.30;;;;;;;19.95;60.15;100212.59;1668720;86;21099;-67
2022/09/03 10:49:13;;;;;;;7.58;3.42;;;;;;;19.84;61.38;100212.65;1707365;84;21142;-66
2022/09/03 10:52:02;;;;;;;7.85;3.12;;;;;;;19.85;59.58;100207.38;1715284;82;21150;-66
2022/09/03 10:54:52;;;;;;;5.62;3.27;;;;;;;19.88;58.48;100210.88;1675389;82;21080;-67
2022/09/03 10:57:34;;;;;;;5.80;2.85;;;;;;;19.69;59.21;100213.94;1682567;84;21102;-66
2022/09/03 11:00:09;;;;;;;5.03;2.80;;;;;;;19.65;60.61;100218.47;1732942;82;21146;-67
2022/09/03 11:03:24;;;;;;;7.78;2.90;;;;;;;19.74;62.21;100211.57;1715281;82;21075;-67
2022/09/03 11:05:59;;;;;;;6.45;3.08;;;;;;;19.77;58.45;100212.31;1712700;82;21094;-68
2022/09/03 11:08:52;;;;;;;4.03;2.27;;;;;;;19.68;57.86;100205.39;1708566;82;21030;-67
2022/09/03 11:11:25;;;;;;;8.18;3.02;;;;;;;19.73;57.54;100192.02;1711617;82;21036;-66
2022/09/03 11:14:05;;;;;;;7.95;2.12;;;;;;;19.88;59.38;100197.06;1724068;82;20983;-65
2022/09/03 11:16:39;;;;;;;4.90;1.87;;;;;;;19.97;58.22;100195.70;1731457;82;21880;-66
2022/09/03 11:19:10;;;;;;;6.00;2.42;;;;;;;20.02;57.66;100194.97;1683548;84;21135;-67
2022/09/03 11:21:37;;;;;;;6.17;3.65;;;;;;;20.06;57.05;100203.42;1682723;84;21542;-67
2022/09/03 11:24:25;;;;;;;8.65;4.55;;;;;;;20.02;55.67;100196.35;1687932;84;21560;-67
2022/09/03 11:27:21;;;;;;;7.40;3.60;;;;;;;20.00;57.55;100192.30;1680569;84;21130;-66
2022/09/03 11:30:08;;;;;;;5.85;2.75;;;;;;;20.05;58.32;100194.91;1684854;84;21078;-66
2022/09/03 11:32:57;;;;;;;5.15;2.17;;;;;;;20.08;57.69;100194.27;1676588;84;21597;-66
2022/09/03 11:35:34;;;;;;;6.15;2.70;;;;;;;20.06;55.90;100183.52;1676023;84;21591;-65
2022/09/03 11:38:17;;;;;;;5.33;2.45;;;;;;;20.08;58.45;100182.64;1687975;83;21620;-66
2022/09/03 11:41:25;;;;;;;7.08;2.90;;;;;;;20.04;55.52;100185.80;1671525;84;21609;-66
2022/09/03 11:43:52;;;;;;;4.97;2.80;;;;;;;19.86;55.01;100182.77;1722182;82;21094;-66
2022/09/03 11:46:26;;;;;;;5.12;2.85;;;;;;;19.68;54.96;100179.16;1725024;82;21082;-67
2022/09/03 11:48:56;;;;;;;7.92;4.28;;;;;;;19.57;56.49;100177.83;1727205;82;21081;-67
2022/09/03 11:51:32;;;;;;;5.25;2.47;;;;;;;19.52;55.63;100174.41;1721973;82;21051;-67
2022/09/03 11:54:02;;;;;;;4.58;2.00;;;;;;;19.47;55.88;100171.78;1739837;82;21074;-66